Terminal Aerodrome Forecast
Issued by NWS

Home | Current Version | Previous Version | Text Only | Print | Product List | Glossary On
Versions: 1 2 3 4 5 6 7 8 9 10 11 12 13 14 15 16 17 18 19 20 21 22 23 24
000
FTUS45 KTFX 270700 AAA
TAFGTF
TAF AMD
KGTF 270735Z 2708/2806 21012KT P6SM SCT060 BKN130
     FM271600 23020G30KT P6SM SCT100 BKN200
     FM280000 24028G35KT P6SM SCT100 SCT200=

USA.gov is the U.S. government's official web portal to all federal, state and local government web resources and services.